Laguna de Duero, Spain
Current Conditions -  °F | °C
As of 9:30 PM on Thursday 29 Jan 2015 (Local Time) from LEVD Reporting Station
Overcast Overcast  
Wind Chill: 40°   Ceiling: 600
Heat Index: 48°   Visibility: 6mi
Dew Point: 46°   Wind: 24mph
Humidity: 93%   Direction: 270°W
Pressure: 29.74"   Gusts: NA
Location:  41.58°N, 4.72°W
Report Text: LEVD 292030Z 27021KT 9999 OVC006 09/08 Q1007
Loading
Personal Weather Stations






























Interactive Weather Map New forecast layout! Learn more

10-Day Weather Forecast

Advertisements
Track Severe Weather on mobile